sensor_id;sensor_type;location;lat;lon;timestamp;P1;durP1;ratioP1;P2;durP2;ratioP2
76850;SDS011;65824;43.726;20.692;2023-09-30T00:01:26;18.92;;;7.72;;
76850;SDS011;65824;43.726;20.692;2023-09-30T00:03:51;12.63;;;6.50;;
76850;SDS011;65824;43.726;20.692;2023-09-30T00:06:17;12.82;;;6.00;;
76850;SDS011;65824;43.726;20.692;2023-09-30T00:08:44;11.65;;;6.03;;
76850;SDS011;65824;43.726;20.692;2023-09-30T00:11:11;14.02;;;6.85;;
76850;SDS011;65824;43.726;20.692;2023-09-30T00:13:41;16.63;;;7.05;;
76850;SDS011;65824;43.726;20.692;2023-09-30T00:16:07;14.02;;;7.03;;
76850;SDS011;65824;43.726;20.692;2023-09-30T00:18:33;14.00;;;7.07;;
76850;SDS011;65824;43.726;20.692;2023-09-30T00:21:00;14.20;;;7.50;;
76850;SDS011;65824;43.726;20.692;2023-09-30T00:23:25;14.25;;;6.82;;
76850;SDS011;65824;43.726;20.692;2023-09-30T00:25:51;12.95;;;6.88;;
76850;SDS011;65824;43.726;20.692;2023-09-30T00:28:17;12.88;;;7.43;;
76850;SDS011;65824;43.726;20.692;2023-09-30T00:30:43;12.00;;;7.00;;
76850;SDS011;65824;43.726;20.692;2023-09-30T00:33:12;14.27;;;6.93;;
76850;SDS011;65824;43.726;20.692;2023-09-30T00:35:38;14.05;;;6.72;;
76850;SDS011;65824;43.726;20.692;2023-09-30T00:38:04;14.52;;;6.18;;
76850;SDS011;65824;43.726;20.692;2023-09-30T00:40:29;12.02;;;6.13;;
76850;SDS011;65824;43.726;20.692;2023-09-30T00:42:55;11.88;;;6.07;;
76850;SDS011;65824;43.726;20.692;2023-09-30T00:45:21;18.13;;;5.95;;
76850;SDS011;65824;43.726;20.692;2023-09-30T00:47:46;13.35;;;5.85;;
76850;SDS011;65824;43.726;20.692;2023-09-30T00:50:12;12.80;;;6.13;;
76850;SDS011;65824;43.726;20.692;2023-09-30T00:52:39;14.32;;;5.75;;
76850;SDS011;65824;43.726;20.692;2023-09-30T00:55:05;11.88;;;4.70;;
76850;SDS011;65824;43.726;20.692;2023-09-30T00:57:33;9.93;;;4.57;;
76850;SDS011;65824;43.726;20.692;2023-09-30T01:00:02;8.05;;;3.55;;
76850;SDS011;65824;43.726;20.692;2023-09-30T01:02:28;6.65;;;3.30;;
76850;SDS011;65824;43.726;20.692;2023-09-30T01:04:54;7.75;;;3.70;;
76850;SDS011;65824;43.726;20.692;2023-09-30T01:07:21;8.27;;;3.97;;
76850;SDS011;65824;43.726;20.692;2023-09-30T01:09:47;6.88;;;3.58;;
76850;SDS011;65824;43.726;20.692;2023-09-30T01:12:14;6.85;;;3.30;;
76850;SDS011;65824;43.726;20.692;2023-09-30T01:14:41;7.32;;;3.60;;
76850;SDS011;65824;43.726;20.692;2023-09-30T01:17:08;8.38;;;3.80;;
76850;SDS011;65824;43.726;20.692;2023-09-30T01:19:34;7.20;;;3.70;;
76850;SDS011;65824;43.726;20.692;2023-09-30T01:22:00;11.00;;;4.97;;
76850;SDS011;65824;43.726;20.692;2023-09-30T01:24:27;10.98;;;6.25;;
76850;SDS011;65824;43.726;20.692;2023-09-30T01:26:53;14.25;;;6.70;;
76850;SDS011;65824;43.726;20.692;2023-09-30T01:29:19;14.55;;;6.93;;
76850;SDS011;65824;43.726;20.692;2023-09-30T01:31:45;12.43;;;6.70;;
76850;SDS011;65824;43.726;20.692;2023-09-30T01:34:15;17.00;;;7.40;;
76850;SDS011;65824;43.726;20.692;2023-09-30T01:36:41;14.77;;;6.88;;
76850;SDS011;65824;43.726;20.692;2023-09-30T01:39:08;11.13;;;6.43;;
76850;SDS011;65824;43.726;20.692;2023-09-30T01:41:35;10.90;;;5.82;;
76850;SDS011;65824;43.726;20.692;2023-09-30T01:44:04;12.75;;;6.25;;
76850;SDS011;65824;43.726;20.692;2023-09-30T01:46:30;12.73;;;5.90;;
76850;SDS011;65824;43.726;20.692;2023-09-30T01:48:55;11.75;;;5.50;;
76850;SDS011;65824;43.726;20.692;2023-09-30T01:51:21;12.73;;;5.15;;
76850;SDS011;65824;43.726;20.692;2023-09-30T01:53:49;13.80;;;5.47;;
76850;SDS011;65824;43.726;20.692;2023-09-30T01:56:17;10.45;;;5.18;;
76850;SDS011;65824;43.726;20.692;2023-09-30T01:58:42;11.88;;;5.28;;
76850;SDS011;65824;43.726;20.692;2023-09-30T02:01:09;12.07;;;5.22;;
76850;SDS011;65824;43.726;20.692;2023-09-30T02:03:34;13.38;;;5.30;;
76850;SDS011;65824;43.726;20.692;2023-09-30T02:06:00;9.60;;;5.20;;
76850;SDS011;65824;43.726;20.692;2023-09-30T02:08:25;12.48;;;6.13;;
76850;SDS011;65824;43.726;20.692;2023-09-30T02:10:51;12.13;;;5.93;;
76850;SDS011;65824;43.726;20.692;2023-09-30T02:13:18;9.52;;;5.15;;
76850;SDS011;65824;43.726;20.692;2023-09-30T02:15:46;11.80;;;5.72;;
76850;SDS011;65824;43.726;20.692;2023-09-30T02:18:11;10.88;;;5.40;;
76850;SDS011;65824;43.726;20.692;2023-09-30T02:20:37;13.75;;;5.78;;
76850;SDS011;65824;43.726;20.692;2023-09-30T02:23:06;13.88;;;6.30;;
76850;SDS011;65824;43.726;20.692;2023-09-30T02:25:36;12.57;;;6.50;;
76850;SDS011;65824;43.726;20.692;2023-09-30T02:28:02;10.30;;;5.20;;
76850;SDS011;65824;43.726;20.692;2023-09-30T02:30:29;13.05;;;5.95;;
76850;SDS011;65824;43.726;20.692;2023-09-30T02:32:59;13.48;;;5.53;;
76850;SDS011;65824;43.726;20.692;2023-09-30T02:35:25;11.63;;;6.07;;
76850;SDS011;65824;43.726;20.692;2023-09-30T02:37:51;10.52;;;5.40;;
76850;SDS011;65824;43.726;20.692;2023-09-30T02:40:19;12.35;;;5.82;;
76850;SDS011;65824;43.726;20.692;2023-09-30T02:42:48;11.80;;;5.53;;
76850;SDS011;65824;43.726;20.692;2023-09-30T02:45:15;11.05;;;5.70;;
76850;SDS011;65824;43.726;20.692;2023-09-30T02:47:42;10.05;;;5.63;;
76850;SDS011;65824;43.726;20.692;2023-09-30T02:50:13;13.50;;;5.72;;
76850;SDS011;65824;43.726;20.692;2023-09-30T02:52:39;18.58;;;6.15;;
76850;SDS011;65824;43.726;20.692;2023-09-30T02:55:12;10.07;;;5.70;;
76850;SDS011;65824;43.726;20.692;2023-09-30T02:57:38;11.55;;;6.20;;
76850;SDS011;65824;43.726;20.692;2023-09-30T03:00:04;11.68;;;6.05;;
76850;SDS011;65824;43.726;20.692;2023-09-30T03:02:46;12.60;;;6.30;;
76850;SDS011;65824;43.726;20.692;2023-09-30T03:05:11;11.35;;;6.40;;
76850;SDS011;65824;43.726;20.692;2023-09-30T03:07:38;12.05;;;6.50;;
76850;SDS011;65824;43.726;20.692;2023-09-30T03:10:03;13.90;;;6.03;;
76850;SDS011;65824;43.726;20.692;2023-09-30T03:12:29;11.02;;;6.10;;
76850;SDS011;65824;43.726;20.692;2023-09-30T03:14:56;13.60;;;6.90;;
76850;SDS011;65824;43.726;20.692;2023-09-30T03:17:21;11.85;;;5.82;;
76850;SDS011;65824;43.726;20.692;2023-09-30T03:19:49;12.23;;;6.03;;
76850;SDS011;65824;43.726;20.692;2023-09-30T03:22:15;9.70;;;6.07;;
76850;SDS011;65824;43.726;20.692;2023-09-30T03:24:41;11.30;;;5.68;;
76850;SDS011;65824;43.726;20.692;2023-09-30T03:27:07;10.93;;;5.72;;
76850;SDS011;65824;43.726;20.692;2023-09-30T03:29:35;10.93;;;5.68;;
76850;SDS011;65824;43.726;20.692;2023-09-30T03:32:01;10.70;;;5.45;;
76850;SDS011;65824;43.726;20.692;2023-09-30T03:34:27;11.20;;;5.63;;
76850;SDS011;65824;43.726;20.692;2023-09-30T03:36:53;11.50;;;5.78;;
76850;SDS011;65824;43.726;20.692;2023-09-30T03:39:20;12.75;;;5.97;;
76850;SDS011;65824;43.726;20.692;2023-09-30T03:41:52;12.32;;;5.35;;
76850;SDS011;65824;43.726;20.692;2023-09-30T03:44:19;10.63;;;5.70;;
76850;SDS011;65824;43.726;20.692;2023-09-30T03:46:48;14.48;;;6.25;;
76850;SDS011;65824;43.726;20.692;2023-09-30T03:49:13;11.60;;;5.90;;
76850;SDS011;65824;43.726;20.692;2023-09-30T03:51:40;15.43;;;6.40;;
76850;SDS011;65824;43.726;20.692;2023-09-30T03:54:06;13.68;;;5.90;;
76850;SDS011;65824;43.726;20.692;2023-09-30T03:56:33;9.85;;;5.80;;
76850;SDS011;65824;43.726;20.692;2023-09-30T03:58:59;12.45;;;6.50;;
76850;SDS011;65824;43.726;20.692;2023-09-30T04:01:24;11.32;;;7.20;;
76850;SDS011;65824;43.726;20.692;2023-09-30T04:03:52;13.18;;;6.18;;
76850;SDS011;65824;43.726;20.692;2023-09-30T04:06:21;14.43;;;6.78;;
76850;SDS011;65824;43.726;20.692;2023-09-30T04:08:46;13.38;;;6.50;;
76850;SDS011;65824;43.726;20.692;2023-09-30T04:11:12;13.95;;;7.50;;
76850;SDS011;65824;43.726;20.692;2023-09-30T04:13:46;11.95;;;7.15;;
76850;SDS011;65824;43.726;20.692;2023-09-30T04:16:14;20.77;;;7.50;;
76850;SDS011;65824;43.726;20.692;2023-09-30T04:18:40;14.23;;;7.07;;
76850;SDS011;65824;43.726;20.692;2023-09-30T04:21:06;12.43;;;6.18;;
76850;SDS011;65824;43.726;20.692;2023-09-30T04:23:32;15.43;;;7.40;;
76850;SDS011;65824;43.726;20.692;2023-09-30T04:26:01;15.95;;;7.28;;
76850;SDS011;65824;43.726;20.692;2023-09-30T04:28:27;12.88;;;6.45;;
76850;SDS011;65824;43.726;20.692;2023-09-30T04:30:54;16.23;;;7.05;;
76850;SDS011;65824;43.726;20.692;2023-09-30T04:33:21;13.90;;;6.18;;
76850;SDS011;65824;43.726;20.692;2023-09-30T04:35:50;13.32;;;6.88;;
76850;SDS011;65824;43.726;20.692;2023-09-30T04:38:15;13.60;;;6.43;;
76850;SDS011;65824;43.726;20.692;2023-09-30T04:40:41;12.95;;;7.03;;
76850;SDS011;65824;43.726;20.692;2023-09-30T04:43:09;17.85;;;7.25;;
76850;SDS011;65824;43.726;20.692;2023-09-30T04:45:35;13.57;;;6.63;;
76850;SDS011;65824;43.726;20.692;2023-09-30T04:48:01;17.48;;;6.70;;
76850;SDS011;65824;43.726;20.692;2023-09-30T04:50:27;13.18;;;6.90;;
76850;SDS011;65824;43.726;20.692;2023-09-30T04:52:56;13.48;;;6.55;;
76850;SDS011;65824;43.726;20.692;2023-09-30T04:55:23;16.27;;;6.80;;
76850;SDS011;65824;43.726;20.692;2023-09-30T04:57:48;14.93;;;6.70;;
76850;SDS011;65824;43.726;20.692;2023-09-30T05:00:17;17.08;;;7.15;;
76850;SDS011;65824;43.726;20.692;2023-09-30T05:02:44;13.18;;;7.03;;
76850;SDS011;65824;43.726;20.692;2023-09-30T05:05:12;15.50;;;6.95;;
76850;SDS011;65824;43.726;20.692;2023-09-30T05:07:39;13.98;;;6.60;;
76850;SDS011;65824;43.726;20.692;2023-09-30T05:10:06;22.15;;;7.35;;
76850;SDS011;65824;43.726;20.692;2023-09-30T05:12:38;17.85;;;7.60;;
76850;SDS011;65824;43.726;20.692;2023-09-30T05:15:04;17.23;;;7.65;;
76850;SDS011;65824;43.726;20.692;2023-09-30T05:17:32;18.02;;;7.22;;
76850;SDS011;65824;43.726;20.692;2023-09-30T05:19:58;16.50;;;7.03;;
76850;SDS011;65824;43.726;20.692;2023-09-30T05:22:24;19.38;;;7.72;;
76850;SDS011;65824;43.726;20.692;2023-09-30T05:24:52;19.98;;;7.47;;
76850;SDS011;65824;43.726;20.692;2023-09-30T05:27:22;15.73;;;6.90;;
76850;SDS011;65824;43.726;20.692;2023-09-30T05:29:48;14.90;;;7.32;;
76850;SDS011;65824;43.726;20.692;2023-09-30T05:32:13;15.30;;;7.15;;
76850;SDS011;65824;43.726;20.692;2023-09-30T05:34:39;16.83;;;7.53;;
76850;SDS011;65824;43.726;20.692;2023-09-30T05:37:05;16.65;;;6.50;;
76850;SDS011;65824;43.726;20.692;2023-09-30T05:39:31;16.30;;;6.72;;
76850;SDS011;65824;43.726;20.692;2023-09-30T05:41:57;15.55;;;6.53;;
76850;SDS011;65824;43.726;20.692;2023-09-30T05:44:25;16.67;;;6.88;;
76850;SDS011;65824;43.726;20.692;2023-09-30T05:46:53;13.05;;;6.32;;
76850;SDS011;65824;43.726;20.692;2023-09-30T05:49:20;18.92;;;7.72;;
76850;SDS011;65824;43.726;20.692;2023-09-30T05:51:46;15.57;;;7.22;;
76850;SDS011;65824;43.726;20.692;2023-09-30T05:54:12;11.30;;;7.40;;
76850;SDS011;65824;43.726;20.692;2023-09-30T05:56:38;15.55;;;6.85;;
76850;SDS011;65824;43.726;20.692;2023-09-30T05:59:07;12.40;;;6.65;;
76850;SDS011;65824;43.726;20.692;2023-09-30T06:01:33;14.95;;;6.40;;
76850;SDS011;65824;43.726;20.692;2023-09-30T06:03:59;14.93;;;7.00;;
76850;SDS011;65824;43.726;20.692;2023-09-30T06:06:26;22.17;;;10.80;;
76850;SDS011;65824;43.726;20.692;2023-09-30T06:08:58;15.73;;;8.13;;
76850;SDS011;65824;43.726;20.692;2023-09-30T06:11:25;15.70;;;8.30;;
76850;SDS011;65824;43.726;20.692;2023-09-30T06:13:54;18.20;;;7.82;;
76850;SDS011;65824;43.726;20.692;2023-09-30T06:16:20;12.88;;;6.90;;
76850;SDS011;65824;43.726;20.692;2023-09-30T06:18:46;13.77;;;7.35;;
76850;SDS011;65824;43.726;20.692;2023-09-30T06:21:14;18.15;;;7.15;;
76850;SDS011;65824;43.726;20.692;2023-09-30T06:23:41;17.05;;;7.63;;
76850;SDS011;65824;43.726;20.692;2023-09-30T06:26:10;14.65;;;8.18;;
76850;SDS011;65824;43.726;20.692;2023-09-30T06:28:35;19.73;;;8.00;;
76850;SDS011;65824;43.726;20.692;2023-09-30T06:31:09;16.77;;;7.97;;
76850;SDS011;65824;43.726;20.692;2023-09-30T06:33:38;13.57;;;7.28;;
76850;SDS011;65824;43.726;20.692;2023-09-30T06:36:09;12.13;;;5.65;;
76850;SDS011;65824;43.726;20.692;2023-09-30T06:38:35;10.85;;;5.70;;
76850;SDS011;65824;43.726;20.692;2023-09-30T06:41:02;11.40;;;5.85;;
76850;SDS011;65824;43.726;20.692;2023-09-30T06:43:27;11.52;;;6.28;;
76850;SDS011;65824;43.726;20.692;2023-09-30T06:45:53;14.13;;;6.22;;
76850;SDS011;65824;43.726;20.692;2023-09-30T06:48:19;11.25;;;5.55;;
76850;SDS011;65824;43.726;20.692;2023-09-30T06:50:46;10.15;;;5.97;;
76850;SDS011;65824;43.726;20.692;2023-09-30T06:53:17;12.60;;;6.03;;
76850;SDS011;65824;43.726;20.692;2023-09-30T06:55:44;14.20;;;6.50;;
76850;SDS011;65824;43.726;20.692;2023-09-30T06:58:09;10.18;;;6.05;;
76850;SDS011;65824;43.726;20.692;2023-09-30T07:00:40;11.52;;;6.35;;
76850;SDS011;65824;43.726;20.692;2023-09-30T07:03:06;15.18;;;6.32;;
76850;SDS011;65824;43.726;20.692;2023-09-30T07:05:35;10.60;;;5.78;;
76850;SDS011;65824;43.726;20.692;2023-09-30T07:08:04;9.50;;;5.50;;
76850;SDS011;65824;43.726;20.692;2023-09-30T07:10:30;11.25;;;6.18;;
76850;SDS011;65824;43.726;20.692;2023-09-30T07:12:56;12.00;;;6.13;;
76850;SDS011;65824;43.726;20.692;2023-09-30T07:15:23;12.88;;;5.65;;
76850;SDS011;65824;43.726;20.692;2023-09-30T07:17:48;10.20;;;5.45;;
76850;SDS011;65824;43.726;20.692;2023-09-30T07:20:15;11.73;;;4.90;;
76850;SDS011;65824;43.726;20.692;2023-09-30T07:22:41;11.98;;;5.15;;
76850;SDS011;65824;43.726;20.692;2023-09-30T07:25:07;9.05;;;4.80;;
76850;SDS011;65824;43.726;20.692;2023-09-30T07:27:33;8.70;;;4.63;;
76850;SDS011;65824;43.726;20.692;2023-09-30T07:29:59;9.73;;;5.10;;
76850;SDS011;65824;43.726;20.692;2023-09-30T07:32:25;10.35;;;5.00;;
76850;SDS011;65824;43.726;20.692;2023-09-30T07:34:51;11.15;;;5.35;;
76850;SDS011;65824;43.726;20.692;2023-09-30T07:37:17;13.38;;;5.53;;
76850;SDS011;65824;43.726;20.692;2023-09-30T07:39:44;10.02;;;5.00;;
76850;SDS011;65824;43.726;20.692;2023-09-30T07:42:10;9.52;;;5.30;;
76850;SDS011;65824;43.726;20.692;2023-09-30T07:44:36;13.05;;;7.28;;
76850;SDS011;65824;43.726;20.692;2023-09-30T07:47:04;13.35;;;6.00;;
76850;SDS011;65824;43.726;20.692;2023-09-30T07:49:31;9.20;;;5.80;;
76850;SDS011;65824;43.726;20.692;2023-09-30T07:52:00;12.57;;;5.97;;
76850;SDS011;65824;43.726;20.692;2023-09-30T07:54:25;20.17;;;6.47;;
76850;SDS011;65824;43.726;20.692;2023-09-30T07:56:51;9.98;;;5.35;;
76850;SDS011;65824;43.726;20.692;2023-09-30T07:59:18;11.15;;;4.53;;
76850;SDS011;65824;43.726;20.692;2023-09-30T08:01:47;11.40;;;4.40;;
76850;SDS011;65824;43.726;20.692;2023-09-30T08:04:20;10.52;;;4.40;;
76850;SDS011;65824;43.726;20.692;2023-09-30T08:06:46;11.32;;;4.88;;
76850;SDS011;65824;43.726;20.692;2023-09-30T08:09:13;10.35;;;4.30;;
76850;SDS011;65824;43.726;20.692;2023-09-30T08:11:40;9.07;;;4.82;;
76850;SDS011;65824;43.726;20.692;2023-09-30T08:14:08;10.13;;;4.25;;
76850;SDS011;65824;43.726;20.692;2023-09-30T08:16:34;10.30;;;4.40;;
76850;SDS011;65824;43.726;20.692;2023-09-30T08:19:00;12.48;;;5.72;;
76850;SDS011;65824;43.726;20.692;2023-09-30T08:21:26;9.93;;;4.85;;
76850;SDS011;65824;43.726;20.692;2023-09-30T08:23:55;11.50;;;4.78;;
76850;SDS011;65824;43.726;20.692;2023-09-30T08:26:22;8.35;;;4.40;;
76850;SDS011;65824;43.726;20.692;2023-09-30T08:28:48;9.50;;;4.65;;
76850;SDS011;65824;43.726;20.692;2023-09-30T08:31:14;8.40;;;4.70;;
76850;SDS011;65824;43.726;20.692;2023-09-30T08:33:40;11.13;;;4.60;;
76850;SDS011;65824;43.726;20.692;2023-09-30T08:36:11;10.07;;;4.72;;
76850;SDS011;65824;43.726;20.692;2023-09-30T08:38:37;10.48;;;4.57;;
76850;SDS011;65824;43.726;20.692;2023-09-30T08:41:03;10.40;;;5.18;;
76850;SDS011;65824;43.726;20.692;2023-09-30T08:43:29;14.15;;;6.75;;
76850;SDS011;65824;43.726;20.692;2023-09-30T08:46:01;10.38;;;4.85;;
76850;SDS011;65824;43.726;20.692;2023-09-30T08:48:29;10.52;;;4.88;;
76850;SDS011;65824;43.726;20.692;2023-09-30T08:50:59;9.27;;;5.28;;
76850;SDS011;65824;43.726;20.692;2023-09-30T08:53:26;13.90;;;6.20;;
76850;SDS011;65824;43.726;20.692;2023-09-30T08:55:55;10.80;;;5.63;;
76850;SDS011;65824;43.726;20.692;2023-09-30T08:58:26;7.55;;;5.22;;
76850;SDS011;65824;43.726;20.692;2023-09-30T09:00:55;11.90;;;7.20;;
76850;SDS011;65824;43.726;20.692;2023-09-30T09:03:24;10.70;;;5.35;;
76850;SDS011;65824;43.726;20.692;2023-09-30T09:05:57;12.95;;;7.32;;
76850;SDS011;65824;43.726;20.692;2023-09-30T09:08:25;10.43;;;5.90;;
76850;SDS011;65824;43.726;20.692;2023-09-30T09:10:55;9.30;;;6.25;;
76850;SDS011;65824;43.726;20.692;2023-09-30T09:13:22;9.63;;;5.32;;
76850;SDS011;65824;43.726;20.692;2023-09-30T09:15:47;12.20;;;5.65;;
76850;SDS011;65824;43.726;20.692;2023-09-30T09:18:31;10.88;;;5.78;;
76850;SDS011;65824;43.726;20.692;2023-09-30T09:21:07;11.82;;;5.00;;
76850;SDS011;65824;43.726;20.692;2023-09-30T09:23:54;12.63;;;5.50;;
76850;SDS011;65824;43.726;20.692;2023-09-30T09:29:02;12.27;;;5.03;;
76850;SDS011;65824;43.726;20.692;2023-09-30T09:31:31;12.73;;;5.68;;
76850;SDS011;65824;43.726;20.692;2023-09-30T09:34:04;11.23;;;4.57;;
76850;SDS011;65824;43.726;20.692;2023-09-30T09:36:42;11.93;;;4.68;;
76850;SDS011;65824;43.726;20.692;2023-09-30T09:39:10;12.65;;;5.50;;
76850;SDS011;65824;43.726;20.692;2023-09-30T09:42:00;19.02;;;7.25;;
76850;SDS011;65824;43.726;20.692;2023-09-30T09:44:26;59.55;;;12.70;;
76850;SDS011;65824;43.726;20.692;2023-09-30T09:46:53;28.75;;;7.53;;
76850;SDS011;65824;43.726;20.692;2023-09-30T09:49:19;19.08;;;6.05;;
76850;SDS011;65824;43.726;20.692;2023-09-30T09:51:45;8.65;;;4.82;;
76850;SDS011;65824;43.726;20.692;2023-09-30T09:54:12;11.32;;;4.88;;
76850;SDS011;65824;43.726;20.692;2023-09-30T09:56:38;10.93;;;5.57;;
76850;SDS011;65824;43.726;20.692;2023-09-30T09:59:04;11.05;;;5.10;;
76850;SDS011;65824;43.726;20.692;2023-09-30T10:01:33;13.48;;;5.90;;
76850;SDS011;65824;43.726;20.692;2023-09-30T10:03:59;12.10;;;5.10;;
76850;SDS011;65824;43.726;20.692;2023-09-30T10:06:26;11.43;;;6.10;;
76850;SDS011;65824;43.726;20.692;2023-09-30T10:08:52;14.15;;;6.18;;
76850;SDS011;65824;43.726;20.692;2023-09-30T10:11:19;17.85;;;5.90;;
76850;SDS011;65824;43.726;20.692;2023-09-30T10:13:52;9.05;;;4.90;;
76850;SDS011;65824;43.726;20.692;2023-09-30T10:19:21;9.60;;;5.00;;
76850;SDS011;65824;43.726;20.692;2023-09-30T10:24:44;9.95;;;4.97;;
76850;SDS011;65824;43.726;20.692;2023-09-30T10:40:46;13.38;;;5.68;;
76850;SDS011;65824;43.726;20.692;2023-09-30T10:43:28;8.85;;;5.10;;
76850;SDS011;65824;43.726;20.692;2023-09-30T10:48:54;9.82;;;5.22;;
76850;SDS011;65824;43.726;20.692;2023-09-30T10:51:20;9.98;;;4.60;;
76850;SDS011;65824;43.726;20.692;2023-09-30T10:53:50;10.10;;;5.07;;
76850;SDS011;65824;43.726;20.692;2023-09-30T10:56:31;9.30;;;5.03;;
76850;SDS011;65824;43.726;20.692;2023-09-30T10:58:57;10.98;;;5.00;;
76850;SDS011;65824;43.726;20.692;2023-09-30T11:01:31;11.07;;;5.30;;
76850;SDS011;65824;43.726;20.692;2023-09-30T11:04:01;10.38;;;5.45;;
76850;SDS011;65824;43.726;20.692;2023-09-30T11:06:30;9.45;;;5.43;;
76850;SDS011;65824;43.726;20.692;2023-09-30T11:08:56;11.32;;;5.22;;
76850;SDS011;65824;43.726;20.692;2023-09-30T11:11:38;11.45;;;4.80;;
76850;SDS011;65824;43.726;20.692;2023-09-30T11:14:21;8.52;;;5.05;;
76850;SDS011;65824;43.726;20.692;2023-09-30T11:16:55;9.73;;;5.13;;
76850;SDS011;65824;43.726;20.692;2023-09-30T11:19:22;9.95;;;4.90;;
76850;SDS011;65824;43.726;20.692;2023-09-30T11:21:49;9.07;;;4.85;;
76850;SDS011;65824;43.726;20.692;2023-09-30T11:24:17;10.30;;;4.70;;
76850;SDS011;65824;43.726;20.692;2023-09-30T11:26:43;10.60;;;5.47;;
76850;SDS011;65824;43.726;20.692;2023-09-30T11:29:10;10.60;;;6.10;;
76850;SDS011;65824;43.726;20.692;2023-09-30T11:34:07;8.68;;;4.80;;
76850;SDS011;65824;43.726;20.692;2023-09-30T11:36:35;10.02;;;5.20;;
76850;SDS011;65824;43.726;20.692;2023-09-30T11:39:01;10.48;;;5.07;;
76850;SDS011;65824;43.726;20.692;2023-09-30T11:41:38;11.05;;;5.60;;
76850;SDS011;65824;43.726;20.692;2023-09-30T11:44:07;12.27;;;5.38;;
76850;SDS011;65824;43.726;20.692;2023-09-30T11:46:50;10.40;;;5.90;;
76850;SDS011;65824;43.726;20.692;2023-09-30T11:49:32;10.27;;;7.22;;
76850;SDS011;65824;43.726;20.692;2023-09-30T11:52:00;9.85;;;5.45;;
76850;SDS011;65824;43.726;20.692;2023-09-30T11:54:37;10.95;;;6.90;;
76850;SDS011;65824;43.726;20.692;2023-09-30T11:57:06;13.02;;;5.30;;
76850;SDS011;65824;43.726;20.692;2023-09-30T11:59:34;8.13;;;5.03;;
76850;SDS011;65824;43.726;20.692;2023-09-30T12:02:01;12.77;;;6.05;;
76850;SDS011;65824;43.726;20.692;2023-09-30T12:04:28;10.18;;;5.97;;
76850;SDS011;65824;43.726;20.692;2023-09-30T12:06:54;11.70;;;5.72;;
76850;SDS011;65824;43.726;20.692;2023-09-30T12:09:20;7.90;;;4.90;;
76850;SDS011;65824;43.726;20.692;2023-09-30T12:11:53;8.52;;;5.03;;
76850;SDS011;65824;43.726;20.692;2023-09-30T12:14:19;9.90;;;4.82;;
76850;SDS011;65824;43.726;20.692;2023-09-30T12:16:46;11.13;;;5.90;;
76850;SDS011;65824;43.726;20.692;2023-09-30T12:19:15;10.88;;;5.10;;
76850;SDS011;65824;43.726;20.692;2023-09-30T12:21:45;9.68;;;4.78;;
76850;SDS011;65824;43.726;20.692;2023-09-30T12:24:13;12.63;;;5.40;;
76850;SDS011;65824;43.726;20.692;2023-09-30T12:26:44;8.77;;;5.30;;
76850;SDS011;65824;43.726;20.692;2023-09-30T12:29:16;8.43;;;4.88;;
76850;SDS011;65824;43.726;20.692;2023-09-30T12:31:43;9.00;;;4.85;;
76850;SDS011;65824;43.726;20.692;2023-09-30T12:34:13;9.43;;;5.35;;
76850;SDS011;65824;43.726;20.692;2023-09-30T12:36:41;10.05;;;4.75;;
76850;SDS011;65824;43.726;20.692;2023-09-30T12:39:08;8.68;;;5.55;;
76850;SDS011;65824;43.726;20.692;2023-09-30T12:41:41;7.95;;;5.07;;
76850;SDS011;65824;43.726;20.692;2023-09-30T12:44:10;10.77;;;4.95;;
76850;SDS011;65824;43.726;20.692;2023-09-30T12:46:37;13.52;;;4.70;;
76850;SDS011;65824;43.726;20.692;2023-09-30T12:49:05;8.65;;;5.20;;
76850;SDS011;65824;43.726;20.692;2023-09-30T12:51:34;9.20;;;4.88;;
76850;SDS011;65824;43.726;20.692;2023-09-30T12:54:00;15.50;;;7.88;;
76850;SDS011;65824;43.726;20.692;2023-09-30T12:56:26;15.77;;;8.05;;
76850;SDS011;65824;43.726;20.692;2023-09-30T12:58:56;12.80;;;5.63;;
76850;SDS011;65824;43.726;20.692;2023-09-30T13:01:22;9.90;;;5.18;;
76850;SDS011;65824;43.726;20.692;2023-09-30T13:03:50;9.48;;;4.88;;
76850;SDS011;65824;43.726;20.692;2023-09-30T13:06:16;9.63;;;4.65;;
76850;SDS011;65824;43.726;20.692;2023-09-30T13:08:42;9.38;;;4.93;;
76850;SDS011;65824;43.726;20.692;2023-09-30T13:11:08;8.75;;;5.07;;
76850;SDS011;65824;43.726;20.692;2023-09-30T13:13:34;8.60;;;5.20;;
76850;SDS011;65824;43.726;20.692;2023-09-30T13:16:00;9.75;;;5.22;;
76850;SDS011;65824;43.726;20.692;2023-09-30T13:18:30;8.18;;;4.72;;
76850;SDS011;65824;43.726;20.692;2023-09-30T13:20:56;9.93;;;6.13;;
76850;SDS011;65824;43.726;20.692;2023-09-30T13:23:22;8.70;;;5.30;;
76850;SDS011;65824;43.726;20.692;2023-09-30T13:25:49;12.27;;;5.50;;
76850;SDS011;65824;43.726;20.692;2023-09-30T13:28:15;9.45;;;4.90;;
76850;SDS011;65824;43.726;20.692;2023-09-30T13:30:41;9.73;;;5.03;;
76850;SDS011;65824;43.726;20.692;2023-09-30T13:33:07;9.30;;;5.28;;
76850;SDS011;65824;43.726;20.692;2023-09-30T13:35:33;7.95;;;4.63;;
76850;SDS011;65824;43.726;20.692;2023-09-30T13:38:01;12.80;;;5.25;;
76850;SDS011;65824;43.726;20.692;2023-09-30T13:40:26;7.60;;;4.45;;
76850;SDS011;65824;43.726;20.692;2023-09-30T13:42:52;11.00;;;4.40;;
76850;SDS011;65824;43.726;20.692;2023-09-30T13:45:18;8.02;;;4.65;;
76850;SDS011;65824;43.726;20.692;2023-09-30T13:47:44;11.10;;;4.97;;
76850;SDS011;65824;43.726;20.692;2023-09-30T13:50:10;9.80;;;5.40;;
76850;SDS011;65824;43.726;20.692;2023-09-30T13:52:36;10.77;;;6.65;;
76850;SDS011;65824;43.726;20.692;2023-09-30T13:55:02;10.15;;;6.10;;
76850;SDS011;65824;43.726;20.692;2023-09-30T13:57:29;8.93;;;5.18;;
76850;SDS011;65824;43.726;20.692;2023-09-30T13:59:55;9.07;;;5.28;;
76850;SDS011;65824;43.726;20.692;2023-09-30T14:02:20;10.07;;;5.15;;
76850;SDS011;65824;43.726;20.692;2023-09-30T14:04:46;9.35;;;4.60;;
76850;SDS011;65824;43.726;20.692;2023-09-30T14:07:13;8.75;;;4.82;;
76850;SDS011;65824;43.726;20.692;2023-09-30T14:09:38;9.32;;;5.35;;
76850;SDS011;65824;43.726;20.692;2023-09-30T14:12:04;10.85;;;6.10;;
76850;SDS011;65824;43.726;20.692;2023-09-30T14:14:31;11.93;;;5.57;;
76850;SDS011;65824;43.726;20.692;2023-09-30T14:17:00;9.23;;;6.07;;
76850;SDS011;65824;43.726;20.692;2023-09-30T14:19:32;10.60;;;6.30;;
76850;SDS011;65824;43.726;20.692;2023-09-30T14:22:00;12.02;;;6.18;;
76850;SDS011;65824;43.726;20.692;2023-09-30T14:24:33;9.23;;;5.72;;
76850;SDS011;65824;43.726;20.692;2023-09-30T14:27:04;10.50;;;6.63;;
76850;SDS011;65824;43.726;20.692;2023-09-30T14:29:30;11.98;;;6.47;;
76850;SDS011;65824;43.726;20.692;2023-09-30T14:31:57;13.48;;;6.07;;
76850;SDS011;65824;43.726;20.692;2023-09-30T14:34:24;11.85;;;6.47;;
76850;SDS011;65824;43.726;20.692;2023-09-30T14:36:50;11.77;;;6.53;;
76850;SDS011;65824;43.726;20.692;2023-09-30T14:39:19;13.32;;;6.53;;
76850;SDS011;65824;43.726;20.692;2023-09-30T14:41:48;16.33;;;6.95;;
76850;SDS011;65824;43.726;20.692;2023-09-30T14:44:13;16.13;;;6.82;;
76850;SDS011;65824;43.726;20.692;2023-09-30T14:46:40;11.05;;;7.07;;
76850;SDS011;65824;43.726;20.692;2023-09-30T14:49:07;16.15;;;7.43;;
76850;SDS011;65824;43.726;20.692;2023-09-30T14:51:35;15.13;;;7.45;;
76850;SDS011;65824;43.726;20.692;2023-09-30T14:54:05;14.23;;;7.68;;